Time;durP1;ratioP1;P1;durP2;ratioP2;P2;SDS_P1;SDS_P2;PMS_P1;PMS_P2;Temp;Humidity;BMP_temperature;BMP_pressure;BME280_temperature;BME280_humidity;BME280_pressure;Samples;Min_cycle;Max_cycle;Signal;HPM_P1;HPM_P2
2023/12/24 00:02:23;;;;;;;2.00;1.00;;;22.60;66.30;;;;;;5055279;28;20941;-91
2023/12/24 00:04:50;;;;;;;1.90;1.00;;;22.50;66.10;;;;;;5056592;28;20438;-90
2023/12/24 00:07:17;;;;;;;2.07;1.30;;;22.50;66.10;;;;;;5055891;28;20536;-91
2023/12/24 00:09:44;;;;;;;2.50;1.20;;;22.60;66.20;;;;;;5055615;28;20444;-96
2023/12/24 00:12:11;;;;;;;1.87;1.07;;;22.60;66.10;;;;;;5055271;28;20548;-91
2023/12/24 00:14:38;;;;;;;1.57;1.27;;;22.60;66.10;;;;;;5055695;28;20437;-90
2023/12/24 00:17:06;;;;;;;3.60;1.40;;;22.60;66.10;;;;;;5054717;28;20485;-91
2023/12/24 00:19:33;;;;;;;3.03;1.37;;;22.50;66.00;;;;;;5054699;28;20436;-91
2023/12/24 00:22:00;;;;;;;1.70;1.10;;;22.50;66.00;;;;;;5054659;28;20528;-91
2023/12/24 00:24:26;;;;;;;1.87;1.33;;;22.50;66.00;;;;;;5055135;28;20449;-91
2023/12/24 00:26:54;;;;;;;1.57;1.13;;;22.50;66.00;;;;;;5055240;28;20469;-91
2023/12/24 00:29:21;;;;;;;1.70;1.20;;;22.50;66.00;;;;;;5054706;28;20448;-91
2023/12/24 00:31:48;;;;;;;1.93;1.23;;;22.50;66.00;;;;;;5054166;28;20442;-91
2023/12/24 00:34:16;;;;;;;1.87;1.00;;;22.50;65.90;;;;;;5054821;28;20464;-91
2023/12/24 00:36:43;;;;;;;3.60;1.40;;;22.50;66.00;;;;;;5054638;28;20850;-95
2023/12/24 00:39:10;;;;;;;1.43;1.00;;;22.50;66.00;;;;;;5054557;28;20441;-91
2023/12/24 00:41:39;;;;;;;2.00;1.20;;;22.50;66.10;;;;;;5054187;28;20935;-91
2023/12/24 00:44:05;;;;;;;1.50;1.10;;;22.40;66.00;;;;;;5053990;28;20943;-96
2023/12/24 00:46:32;;;;;;;1.40;1.00;;;22.40;66.00;;;;;;5054275;28;20434;-91
2023/12/24 00:48:59;;;;;;;1.73;1.10;;;22.40;65.80;;;;;;5054084;28;20463;-96
2023/12/24 00:51:28;;;;;;;1.87;1.20;;;22.40;65.90;;;;;;5054768;28;20438;-91
2023/12/24 00:53:54;;;;;;;3.57;1.10;;;22.40;65.80;;;;;;5054059;28;20441;-90
2023/12/24 00:56:21;;;;;;;2.30;1.10;;;22.60;66.10;;;;;;5054735;28;20572;-91
2023/12/24 00:58:48;;;;;;;1.97;1.10;;;22.40;65.90;;;;;;5053962;28;20452;-96
2023/12/24 01:01:15;;;;;;;1.30;1.00;;;22.40;65.90;;;;;;5054282;28;20425;-91
2023/12/24 01:03:41;;;;;;;1.40;1.00;;;22.40;65.90;;;;;;5053559;28;20433;-91
2023/12/24 01:06:08;;;;;;;1.60;1.10;;;22.50;66.00;;;;;;5054048;28;20804;-91
2023/12/24 01:08:37;;;;;;;1.50;0.90;;;22.40;65.90;;;;;;5054028;28;20433;-91
2023/12/24 01:11:04;;;;;;;1.87;1.03;;;22.40;65.90;;;;;;5053877;28;20552;-91
2023/12/24 01:13:31;;;;;;;1.87;1.00;;;22.40;65.90;;;;;;5053506;28;20444;-91
2023/12/24 01:15:58;;;;;;;1.77;1.20;;;22.40;65.90;;;;;;5053421;28;20473;-91
2023/12/24 01:18:25;;;;;;;1.60;0.90;;;22.30;65.80;;;;;;5053764;28;20469;-91
2023/12/24 01:20:52;;;;;;;1.40;0.93;;;22.30;65.80;;;;;;5054079;28;20436;-91
2023/12/24 01:23:19;;;;;;;2.23;1.10;;;22.30;65.90;;;;;;5053582;28;20473;-91
2023/12/24 01:25:47;;;;;;;2.40;1.23;;;22.30;65.90;;;;;;5053674;28;20440;-91
2023/12/24 01:28:18;;;;;;;2.13;0.97;;;22.40;66.00;;;;;;5055237;28;20487;-96
2023/12/24 01:30:45;;;;;;;1.40;0.93;;;22.30;65.70;;;;;;5055275;28;20430;-91
2023/12/24 01:33:12;;;;;;;1.53;0.97;;;22.30;65.80;;;;;;5054185;28;21074;-91
2023/12/24 01:35:41;;;;;;;1.47;1.00;;;22.30;65.80;;;;;;5060619;28;20475;-91
2023/12/24 01:38:08;;;;;;;1.50;0.90;;;22.30;65.90;;;;;;5061140;28;20501;-91
2023/12/24 01:40:35;;;;;;;1.37;0.93;;;22.30;65.80;;;;;;5060235;28;20448;-91
2023/12/24 01:43:04;;;;;;;1.40;0.80;;;22.30;65.90;;;;;;5061936;28;20443;-91
2023/12/24 01:45:31;;;;;;;1.70;1.27;;;22.30;65.90;;;;;;5063813;28;20445;-96
2023/12/24 01:47:58;;;;;;;1.60;0.80;;;22.30;65.90;;;;;;5062001;28;21023;-91
2023/12/24 01:50:25;;;;;;;2.20;1.20;;;22.30;65.90;;;;;;5061359;28;20443;-96
2023/12/24 01:52:53;;;;;;;1.47;1.20;;;22.40;66.10;;;;;;5059784;28;20944;-91
2023/12/24 01:55:21;;;;;;;1.30;0.90;;;22.30;65.90;;;;;;5060790;28;20445;-91
2023/12/24 01:57:48;;;;;;;1.50;0.90;;;22.40;66.10;;;;;;5061148;28;20530;-91
2023/12/24 02:00:19;;;;;;;1.50;1.20;;;22.30;65.90;;;;;;5061193;28;20967;-91
2023/12/24 02:02:46;;;;;;;1.60;0.87;;;22.30;65.80;;;;;;5061320;28;20445;-91
2023/12/24 02:05:13;;;;;;;1.53;0.97;;;22.30;66.70;;;;;;5060888;28;20464;-91
2023/12/24 02:07:41;;;;;;;1.50;1.00;;;22.30;65.80;;;;;;5060851;28;20465;-91
2023/12/24 02:10:09;;;;;;;1.60;1.00;;;22.30;65.80;;;;;;5060219;28;20531;-91
2023/12/24 02:12:36;;;;;;;1.50;0.90;;;22.30;65.70;;;;;;5059944;28;20457;-90
2023/12/24 02:15:04;;;;;;;1.50;1.10;;;22.30;65.80;;;;;;5062538;28;20439;-91
2023/12/24 02:17:33;;;;;;;1.30;1.00;;;22.30;65.70;;;;;;5060199;28;20480;-91
2023/12/24 02:20:00;;;;;;;2.17;1.10;;;22.30;65.70;;;;;;5060919;28;20429;-91
2023/12/24 02:22:28;;;;;;;1.50;0.87;;;22.30;65.70;;;;;;5060395;28;20544;-91
2023/12/24 02:24:56;;;;;;;1.63;1.10;;;22.30;65.70;;;;;;5060835;28;20532;-91
2023/12/24 02:27:27;;;;;;;1.20;0.90;;;22.30;65.70;;;;;;5060115;28;20472;-91
2023/12/24 02:29:58;;;;;;;1.30;0.97;;;22.30;65.60;;;;;;5059485;28;20444;-91
2023/12/24 02:32:26;;;;;;;1.20;0.80;;;22.30;65.60;;;;;;5061527;28;20477;-91
2023/12/24 02:34:57;;;;;;;1.30;0.90;;;22.30;65.50;;;;;;5059041;28;20451;-91
2023/12/24 02:37:24;;;;;;;1.50;0.90;;;22.30;66.50;;;;;;5059345;28;20489;-91
2023/12/24 02:39:53;;;;;;;1.37;0.90;;;22.30;65.60;;;;;;5059438;28;20463;-91
2023/12/24 02:42:19;;;;;;;1.50;0.80;;;22.30;65.60;;;;;;5060305;28;20467;-90
2023/12/24 02:44:46;;;;;;;1.40;0.80;;;22.30;65.60;;;;;;5060048;28;20940;-91
2023/12/24 02:47:14;;;;;;;1.50;0.90;;;22.30;65.60;;;;;;5057945;28;20501;-91
2023/12/24 02:49:41;;;;;;;1.27;0.90;;;22.40;65.70;;;;;;5056133;28;20438;-91
2023/12/24 02:52:07;;;;;;;1.93;1.23;;;22.30;65.60;;;;;;5056454;28;20803;-91
2023/12/24 02:54:34;;;;;;;1.37;0.90;;;22.30;65.50;;;;;;5057700;28;20465;-91
2023/12/24 02:57:06;;;;;;;1.73;0.90;;;22.30;65.40;;;;;;5039263;28;21041;-91
2023/12/24 02:59:33;;;;;;;1.50;1.00;;;22.30;65.50;;;;;;5057888;28;20438;-91
2023/12/24 03:01:59;;;;;;;1.60;0.80;;;22.30;65.50;;;;;;5058313;28;20433;-91
2023/12/24 03:04:26;;;;;;;2.23;0.80;;;22.30;65.40;;;;;;5056126;28;20437;-91
2023/12/24 03:06:53;;;;;;;1.30;0.80;;;22.30;65.40;;;;;;5057662;28;20444;-91
2023/12/24 03:09:20;;;;;;;1.83;0.93;;;22.40;65.50;;;;;;5056987;28;20528;-91
2023/12/24 03:11:47;;;;;;;1.60;0.80;;;22.30;65.40;;;;;;5057996;28;20472;-91
2023/12/24 03:14:15;;;;;;;1.30;0.80;;;22.30;65.40;;;;;;5059492;28;20528;-91
2023/12/24 03:16:42;;;;;;;1.77;0.80;;;22.40;65.50;;;;;;5058166;28;20819;-91
2023/12/24 03:19:09;;;;;;;2.20;1.10;;;22.40;65.60;;;;;;5058252;28;20446;-92
2023/12/24 03:21:36;;;;;;;1.10;0.70;;;22.30;65.40;;;;;;5057120;28;21012;-91
2023/12/24 03:24:03;;;;;;;2.30;1.23;;;22.30;65.40;;;;;;5057213;28;20446;-91
2023/12/24 03:26:34;;;;;;;1.30;0.90;;;22.30;65.50;;;;;;5056955;28;20972;-91
2023/12/24 03:29:01;;;;;;;1.30;1.10;;;22.40;65.60;;;;;;5056346;28;20442;-91
2023/12/24 03:31:30;;;;;;;1.40;1.00;;;22.30;65.50;;;;;;5056525;28;20452;-91
2023/12/24 03:33:57;;;;;;;1.77;0.90;;;22.30;65.60;;;;;;5059163;28;20446;-91
2023/12/24 03:36:28;;;;;;;1.93;0.80;;;22.30;65.50;;;;;;5057135;28;20972;-91
2023/12/24 03:38:58;;;;;;;1.30;0.90;;;22.30;65.50;;;;;;5059981;28;20864;-92
2023/12/24 03:41:25;;;;;;;1.30;0.90;;;22.30;65.50;;;;;;5057015;28;20489;-91
2023/12/24 03:43:52;;;;;;;2.47;0.93;;;22.30;65.50;;;;;;5058323;28;20425;-92
2023/12/24 03:46:20;;;;;;;1.30;0.90;;;22.30;65.50;;;;;;5057792;28;20883;-92
2023/12/24 03:48:48;;;;;;;1.20;0.77;;;22.30;65.50;;;;;;5056705;28;20746;-93
2023/12/24 03:51:15;;;;;;;2.10;0.90;;;22.30;65.50;;;;;;5057567;28;20440;-91
2023/12/24 03:53:45;;;;;;;1.73;0.90;;;22.30;65.50;;;;;;5055889;28;20438;-91
2023/12/24 03:56:12;;;;;;;1.13;0.80;;;22.30;65.50;;;;;;5056789;28;20441;-91
2023/12/24 03:58:39;;;;;;;1.10;0.80;;;22.30;65.50;;;;;;5056312;28;20481;-91
2023/12/24 04:01:08;;;;;;;1.50;0.93;;;22.30;65.60;;;;;;5056399;28;20441;-91
2023/12/24 04:03:35;;;;;;;1.60;0.80;;;22.30;65.50;;;;;;5054786;28;20437;-91
2023/12/24 04:06:10;;;;;;;1.77;0.80;;;22.30;65.50;;;;;;5057872;28;20440;-91
2023/12/24 04:08:38;;;;;;;1.20;0.80;;;22.30;65.50;;;;;;5057819;28;20433;-96
2023/12/24 04:11:12;;;;;;;1.20;0.70;;;22.30;65.50;;;;;;5055146;28;20827;-91
2023/12/24 04:13:40;;;;;;;2.80;0.90;;;22.30;65.50;;;;;;5039415;28;20434;-91
2023/12/24 04:16:07;;;;;;;1.50;0.80;;;22.30;65.50;;;;;;5057376;28;20430;-91
2023/12/24 04:18:34;;;;;;;1.10;0.80;;;22.40;65.60;;;;;;5055467;28;20480;-92
2023/12/24 04:21:01;;;;;;;1.77;0.90;;;22.30;65.50;;;;;;5058438;28;20532;-91
2023/12/24 04:23:29;;;;;;;1.90;1.03;;;22.30;65.60;;;;;;5054311;28;20609;-92
2023/12/24 04:25:56;;;;;;;1.67;1.00;;;22.30;65.60;;;;;;5054949;28;20433;-91
2023/12/24 04:28:24;;;;;;;1.10;0.70;;;22.30;65.50;;;;;;5055578;28;20491;-92
2023/12/24 04:30:51;;;;;;;1.20;0.80;;;22.30;65.60;;;;;;5054910;28;20970;-91
2023/12/24 04:33:18;;;;;;;2.00;0.90;;;22.20;65.40;;;;;;5055797;28;20446;-91
2023/12/24 04:35:45;;;;;;;1.20;0.77;;;22.20;65.50;;;;;;5056254;28;20469;-91
2023/12/24 04:38:12;;;;;;;1.30;0.90;;;22.30;65.60;;;;;;5056304;28;20480;-91
2023/12/24 04:40:40;;;;;;;1.20;0.83;;;22.30;65.60;;;;;;5055734;28;20461;-91
2023/12/24 04:43:07;;;;;;;1.33;0.73;;;22.20;65.50;;;;;;5054301;28;20438;-91
2023/12/24 04:45:34;;;;;;;1.30;0.80;;;22.20;65.50;;;;;;5054777;28;20437;-96
2023/12/24 04:48:03;;;;;;;2.50;0.90;;;22.20;65.50;;;;;;5054628;28;20442;-92
2023/12/24 04:50:30;;;;;;;1.30;0.77;;;22.20;65.50;;;;;;5055216;28;20940;-92
2023/12/24 04:53:03;;;;;;;1.40;0.87;;;22.20;65.50;;;;;;5055080;28;21004;-91
2023/12/24 04:55:30;;;;;;;1.43;0.70;;;22.30;65.60;;;;;;5057272;28;20436;-92
2023/12/24 04:57:58;;;;;;;1.50;0.83;;;22.40;65.70;;;;;;5054471;28;20483;-91
2023/12/24 05:00:25;;;;;;;1.10;0.70;;;22.30;65.60;;;;;;5053888;28;20541;-91
2023/12/24 05:02:52;;;;;;;1.20;0.80;;;22.20;65.50;;;;;;5054316;28;20809;-91
2023/12/24 05:05:19;;;;;;;1.20;0.70;;;22.30;65.60;;;;;;5055285;28;20437;-92
2023/12/24 05:07:46;;;;;;;1.63;0.70;;;22.30;65.60;;;;;;5054434;28;20433;-91
2023/12/24 05:10:13;;;;;;;1.20;0.70;;;22.40;65.70;;;;;;5054750;28;20940;-92
2023/12/24 05:12:39;;;;;;;2.00;0.80;;;22.30;65.60;;;;;;5054291;28;20443;-96
2023/12/24 05:15:08;;;;;;;1.10;0.70;;;22.30;65.60;;;;;;5054467;28;20528;-91
2023/12/24 05:17:35;;;;;;;1.10;0.70;;;22.30;65.50;;;;;;5053788;28;20529;-92
2023/12/24 05:20:02;;;;;;;1.10;0.70;;;22.30;65.50;;;;;;5053915;28;20442;-91
2023/12/24 05:22:30;;;;;;;1.10;0.70;;;22.30;65.50;;;;;;5057629;28;20472;-96
2023/12/24 05:24:58;;;;;;;1.07;0.63;;;22.30;65.50;;;;;;5058255;28;20480;-96
2023/12/24 05:27:24;;;;;;;1.10;0.60;;;22.30;65.40;;;;;;5055517;28;20461;-91
2023/12/24 05:29:55;;;;;;;1.20;0.80;;;22.30;65.40;;;;;;5058618;28;20438;-91
2023/12/24 05:32:23;;;;;;;1.20;0.80;;;22.30;65.40;;;;;;5057323;28;20438;-91
2023/12/24 05:34:50;;;;;;;1.10;0.60;;;22.30;65.40;;;;;;5054300;28;20541;-91
2023/12/24 05:37:17;;;;;;;1.10;0.70;;;22.50;65.60;;;;;;5038036;28;20469;-91
2023/12/24 05:39:44;;;;;;;1.20;0.70;;;22.30;65.40;;;;;;5055739;28;20532;-91
2023/12/24 05:42:11;;;;;;;1.10;0.70;;;22.30;65.30;;;;;;5055782;28;20532;-91
2023/12/24 05:44:38;;;;;;;1.03;0.60;;;22.30;65.40;;;;;;5055078;28;20442;-92
2023/12/24 05:47:05;;;;;;;1.20;0.77;;;22.40;65.40;;;;;;5057948;28;20441;-91
2023/12/24 05:49:33;;;;;;;1.10;0.70;;;22.40;65.40;;;;;;5055477;28;20536;-91
2023/12/24 05:52:00;;;;;;;1.20;0.80;;;22.40;65.40;;;;;;5054430;28;20802;-91
2023/12/24 05:57:08;;;;;;;1.20;0.70;;;22.40;65.30;;;;;;5052883;28;20492;-91
2023/12/24 05:59:34;;;;;;;1.20;0.63;;;22.40;65.40;;;;;;5053081;28;20938;-91
2023/12/24 06:02:02;;;;;;;1.00;0.60;;;22.40;65.30;;;;;;5054318;28;20441;-91
2023/12/24 06:04:30;;;;;;;1.20;0.80;;;22.40;65.40;;;;;;5037425;28;20457;-91
2023/12/24 06:06:58;;;;;;;1.40;0.90;;;22.40;65.30;;;;;;5053244;28;20801;-92
2023/12/24 06:09:25;;;;;;;1.20;0.80;;;22.40;65.40;;;;;;5054440;28;20444;-92
2023/12/24 06:11:52;;;;;;;1.10;0.70;;;22.40;65.40;;;;;;5053774;28;20544;-91
2023/12/24 06:14:19;;;;;;;1.30;0.80;;;22.40;66.20;;;;;;5053308;28;20802;-91
2023/12/24 06:16:45;;;;;;;1.30;0.70;;;22.40;65.40;;;;;;5054029;28;20472;-96
2023/12/24 06:19:12;;;;;;;1.10;0.70;;;22.50;65.50;;;;;;5053836;28;20484;-91
2023/12/24 06:21:40;;;;;;;1.30;0.90;;;22.40;65.40;;;;;;5056815;28;20448;-91
2023/12/24 06:24:08;;;;;;;1.10;0.60;;;22.40;66.20;;;;;;5058467;28;20441;-91
2023/12/24 06:26:35;;;;;;;1.10;0.67;;;22.40;65.40;;;;;;5056894;28;20968;-91
2023/12/24 06:29:02;;;;;;;1.70;0.80;;;22.40;65.40;;;;;;5056779;28;20544;-91
2023/12/24 06:31:29;;;;;;;1.10;0.60;;;22.40;65.30;;;;;;5057184;28;20445;-91
2023/12/24 06:33:56;;;;;;;1.20;0.70;;;22.40;65.30;;;;;;5056683;28;20484;-91
2023/12/24 06:36:23;;;;;;;1.20;0.80;;;22.40;65.40;;;;;;5057075;28;20817;-91
2023/12/24 06:38:50;;;;;;;1.37;0.90;;;22.40;65.30;;;;;;5057100;28;20487;-91
2023/12/24 06:41:18;;;;;;;1.10;0.70;;;22.40;65.30;;;;;;5058230;28;20984;-91
2023/12/24 06:43:45;;;;;;;1.00;0.60;;;22.40;65.20;;;;;;5058069;28;20444;-91
2023/12/24 06:46:12;;;;;;;1.20;0.60;;;22.40;65.20;;;;;;5057858;28;20441;-91
2023/12/24 06:48:39;;;;;;;1.30;0.70;;;22.40;65.20;;;;;;5057784;28;20476;-91
2023/12/24 06:51:07;;;;;;;1.10;0.70;;;22.40;65.20;;;;;;5058757;28;20449;-91
2023/12/24 06:53:33;;;;;;;1.20;0.70;;;22.40;65.20;;;;;;5057043;28;20452;-91
2023/12/24 06:56:00;;;;;;;1.10;0.80;;;22.40;65.20;;;;;;5057278;28;20807;-91
2023/12/24 06:58:29;;;;;;;1.20;0.80;;;22.40;65.20;;;;;;5056551;28;20484;-91
2023/12/24 07:00:56;;;;;;;1.10;0.80;;;22.40;65.20;;;;;;5057116;28;20532;-91
2023/12/24 07:03:23;;;;;;;1.10;0.70;;;22.50;65.40;;;;;;5059888;28;20862;-91
2023/12/24 07:05:52;;;;;;;1.10;0.70;;;22.50;65.30;;;;;;5057049;28;20531;-91
2023/12/24 07:08:20;;;;;;;1.00;0.63;;;22.50;65.30;;;;;;5058391;28;20440;-91
2023/12/24 07:10:46;;;;;;;1.10;0.73;;;22.40;65.20;;;;;;5059638;28;20461;-91
2023/12/24 07:13:14;;;;;;;1.27;0.80;;;22.40;65.20;;;;;;5056282;28;20862;-91
2023/12/24 07:15:43;;;;;;;1.30;0.80;;;22.50;65.30;;;;;;5057384;28;20441;-91
2023/12/24 07:18:11;;;;;;;1.30;0.67;;;22.60;65.40;;;;;;5058897;28;20477;-91
2023/12/24 07:20:37;;;;;;;1.10;0.70;;;22.60;66.20;;;;;;5056253;28;20476;-91
2023/12/24 07:23:05;;;;;;;1.20;0.80;;;22.50;65.20;;;;;;5057064;28;20489;-91
2023/12/24 07:25:32;;;;;;;1.20;0.63;;;22.50;65.30;;;;;;5058666;28;20444;-91
2023/12/24 07:27:58;;;;;;;1.20;0.80;;;22.50;65.30;;;;;;5057507;28;21028;-91
2023/12/24 07:30:25;;;;;;;1.00;0.60;;;22.50;65.20;;;;;;5057169;28;20445;-91
2023/12/24 07:32:54;;;;;;;1.10;0.70;;;22.50;65.30;;;;;;5054709;28;20433;-91
2023/12/24 07:35:23;;;;;;;1.10;0.70;;;22.50;65.30;;;;;;5056540;28;20441;-91
2023/12/24 07:37:49;;;;;;;1.30;0.70;;;22.50;65.30;;;;;;5056362;28;20475;-91
2023/12/24 07:40:16;;;;;;;1.20;0.80;;;22.50;65.30;;;;;;5055655;28;20532;-91
2023/12/24 07:42:44;;;;;;;1.10;0.60;;;22.50;65.20;;;;;;5058118;28;20772;-91
2023/12/24 07:45:11;;;;;;;1.10;0.70;;;22.50;65.20;;;;;;5055227;28;20458;-91
2023/12/24 07:47:39;;;;;;;1.20;0.80;;;22.50;66.00;;;;;;5056867;28;20445;-91
2023/12/24 07:50:08;;;;;;;1.00;0.60;;;22.50;65.20;;;;;;5056257;28;20442;-91
2023/12/24 07:52:35;;;;;;;1.10;0.60;;;22.50;65.20;;;;;;5057064;28;20508;-92
2023/12/24 07:55:02;;;;;;;1.10;0.60;;;22.50;65.20;;;;;;5056747;28;20520;-96
2023/12/24 07:57:28;;;;;;;1.13;0.63;;;22.50;65.20;;;;;;5055889;28;20885;-91
2023/12/24 07:59:55;;;;;;;1.20;0.80;;;22.50;66.00;;;;;;5055779;28;20492;-91
2023/12/24 08:02:22;;;;;;;1.10;0.67;;;22.50;65.20;;;;;;5056884;28;20842;-91
2023/12/24 08:04:49;;;;;;;1.13;0.70;;;22.50;65.20;;;;;;5056859;28;20438;-91
2023/12/24 08:07:17;;;;;;;1.10;0.70;;;22.50;65.20;;;;;;5055280;28;20448;-91
2023/12/24 08:09:44;;;;;;;1.20;0.70;;;22.50;65.20;;;;;;5054911;28;20449;-92
2023/12/24 08:12:11;;;;;;;1.30;0.70;;;22.50;65.20;;;;;;5055153;28;20464;-92
2023/12/24 08:14:37;;;;;;;1.30;0.63;;;22.50;65.30;;;;;;5055053;28;20444;-91
2023/12/24 08:17:04;;;;;;;1.20;0.70;;;22.50;65.30;;;;;;5056722;28;20966;-91
2023/12/24 08:19:31;;;;;;;1.10;0.70;;;22.50;65.30;;;;;;5058592;28;20572;-92
2023/12/24 08:21:58;;;;;;;1.10;0.60;;;22.50;65.30;;;;;;5058241;28;20524;-91
2023/12/24 08:24:28;;;;;;;1.10;0.70;;;22.50;65.20;;;;;;5055981;28;20442;-91
2023/12/24 08:26:54;;;;;;;1.20;0.73;;;22.50;66.10;;;;;;5041476;28;20481;-91
2023/12/24 08:29:21;;;;;;;1.30;0.60;;;22.50;65.30;;;;;;5059188;28;20537;-93
2023/12/24 08:31:48;;;;;;;1.10;0.70;;;22.50;65.20;;;;;;5057511;28;20446;-92
2023/12/24 08:34:15;;;;;;;1.77;0.63;;;22.50;65.40;;;;;;5056215;28;20536;-93
2023/12/24 08:36:51;;;;;;;2.70;0.70;;;22.50;65.00;;;;;;5055511;28;20536;-95
2023/12/24 08:39:18;;;;;;;2.40;0.80;;;22.50;65.30;;;;;;5054112;28;20484;-91
2023/12/24 08:41:51;;;;;;;6.80;0.83;;;22.60;65.40;;;;;;5054492;28;20468;-96
2023/12/24 08:44:18;;;;;;;1.00;0.60;;;22.60;65.40;;;;;;5055194;28;20430;-91
2023/12/24 08:46:48;;;;;;;1.20;0.70;;;22.60;65.50;;;;;;5053080;28;20441;-90
2023/12/24 08:49:15;;;;;;;1.00;0.60;;;22.60;65.30;;;;;;5053806;28;20804;-94
2023/12/24 08:51:42;;;;;;;4.77;0.80;;;22.60;65.60;;;;;;5054117;28;20474;-91
2023/12/24 08:54:09;;;;;;;4.00;0.80;;;22.60;65.70;;;;;;5053078;28;20446;-94
2023/12/24 08:56:36;;;;;;;5.83;0.90;;;22.60;65.50;;;;;;5054270;28;20995;-89
2023/12/24 08:59:07;;;;;;;1.23;0.70;;;22.70;65.70;;;;;;5053157;28;20484;-89
2023/12/24 09:01:34;;;;;;;1.30;0.73;;;22.60;65.70;;;;;;5053384;28;20454;-89
2023/12/24 09:04:02;;;;;;;1.10;0.70;;;22.50;65.60;;;;;;5053243;28;20448;-89
2023/12/24 09:06:29;;;;;;;1.50;0.67;;;22.50;65.70;;;;;;5053620;28;20464;-89
2023/12/24 09:08:55;;;;;;;2.23;0.70;;;22.50;65.80;;;;;;5053290;28;20927;-89
2023/12/24 09:11:22;;;;;;;1.10;0.70;;;22.50;66.70;;;;;;5053319;28;20541;-96
2023/12/24 09:13:49;;;;;;;1.73;0.70;;;22.50;66.00;;;;;;5053393;28;20442;-96
2023/12/24 09:16:17;;;;;;;2.03;0.93;;;22.60;66.20;;;;;;5053493;28;20780;-90
2023/12/24 09:18:44;;;;;;;7.17;0.70;;;22.50;66.30;;;;;;5053075;28;20491;-89
2023/12/24 09:21:11;;;;;;;2.80;0.90;;;22.50;66.40;;;;;;5053289;28;20976;-90
2023/12/24 09:23:38;;;;;;;1.40;0.70;;;22.50;66.30;;;;;;5053410;28;20501;-89
2023/12/24 09:26:04;;;;;;;1.50;0.80;;;22.50;66.40;;;;;;5053792;28;20441;-90
2023/12/24 09:28:31;;;;;;;1.10;0.70;;;22.50;66.50;;;;;;5053879;28;20856;-90
2023/12/24 09:30:58;;;;;;;1.30;0.70;;;22.50;66.60;;;;;;5053740;28;20520;-90
2023/12/24 09:33:26;;;;;;;2.53;0.80;;;22.50;66.10;;;;;;5053625;28;21142;-91
2023/12/24 09:35:53;;;;;;;1.10;0.70;;;22.50;66.50;;;;;;5052561;28;20477;-89
2023/12/24 09:38:20;;;;;;;1.50;0.77;;;22.50;66.50;;;;;;5053616;28;20452;-93
2023/12/24 09:40:47;;;;;;;1.10;0.80;;;22.50;66.50;;;;;;5054206;28;20544;-90
2023/12/24 09:43:13;;;;;;;2.63;0.80;;;22.50;66.60;;;;;;5052947;28;20834;-90
2023/12/24 09:45:40;;;;;;;1.40;0.60;;;22.50;66.50;;;;;;5054172;28;20504;-89
2023/12/24 09:48:07;;;;;;;1.10;0.70;;;22.50;66.60;;;;;;5053192;28;20445;-91
2023/12/24 09:50:35;;;;;;;1.33;0.80;;;22.50;66.60;;;;;;5055300;28;20536;-90
2023/12/24 09:53:04;;;;;;;1.20;0.70;;;22.60;66.90;;;;;;5054019;28;20791;-90
2023/12/24 09:55:30;;;;;;;1.10;0.70;;;22.60;66.90;;;;;;5054780;28;20446;-90
2023/12/24 09:57:57;;;;;;;1.30;0.73;;;22.60;67.00;;;;;;5057237;28;20471;-89
2023/12/24 10:00:24;;;;;;;1.10;0.63;;;22.60;67.10;;;;;;5056869;28;20995;-90
2023/12/24 10:02:52;;;;;;;1.10;0.70;;;22.60;67.10;;;;;;5057649;28;20804;-89
2023/12/24 10:05:18;;;;;;;2.43;1.30;;;22.60;67.10;;;;;;5057036;28;20445;-90
2023/12/24 10:07:46;;;;;;;1.30;0.70;;;22.60;66.90;;;;;;5057592;28;20444;-90
2023/12/24 10:10:14;;;;;;;1.40;0.80;;;22.60;67.10;;;;;;5058509;28;20465;-90
2023/12/24 10:12:42;;;;;;;1.10;0.70;;;22.60;66.50;;;;;;5057013;28;20440;-90
2023/12/24 10:15:09;;;;;;;1.50;0.70;;;22.60;66.90;;;;;;5057377;28;20449;-88
2023/12/24 10:17:37;;;;;;;1.20;0.70;;;22.60;66.90;;;;;;5057264;28;20438;-90
2023/12/24 10:20:06;;;;;;;1.10;0.67;;;22.60;66.90;;;;;;5056720;28;20499;-90
2023/12/24 10:22:33;;;;;;;1.87;0.70;;;22.60;67.10;;;;;;5056760;28;20960;-90
2023/12/24 10:25:03;;;;;;;1.50;0.80;;;22.60;67.10;;;;;;5056698;28;20847;-91
2023/12/24 10:27:30;;;;;;;1.37;0.77;;;22.60;67.10;;;;;;5058777;28;20467;-93
2023/12/24 10:30:10;;;;;;;1.30;0.70;;;22.60;67.90;;;;;;5056497;28;20444;-94
2023/12/24 10:32:36;;;;;;;1.50;0.70;;;22.70;67.30;;;;;;5056993;28;20429;-92
2023/12/24 10:35:13;;;;;;;1.20;0.70;;;22.60;67.20;;;;;;5057203;28;20477;-93
2023/12/24 10:37:44;;;;;;;1.30;0.60;;;22.60;67.10;;;;;;5058633;28;20433;-89
2023/12/24 10:40:13;;;;;;;1.83;0.80;;;22.60;66.90;;;;;;5055901;28;20495;-93
2023/12/24 10:42:39;;;;;;;1.33;0.70;;;22.60;64.50;;;;;;5056261;28;20944;-94
2023/12/24 10:45:07;;;;;;;3.53;0.97;;;22.70;65.70;;;;;;5056212;28;20484;-91
2023/12/24 10:47:35;;;;;;;2.33;0.80;;;22.60;66.20;;;;;;5056173;28;20540;-90
2023/12/24 10:50:03;;;;;;;1.20;0.83;;;22.60;66.40;;;;;;5055942;28;20446;-90
2023/12/24 10:52:29;;;;;;;1.10;0.70;;;22.60;66.20;;;;;;5056430;28;20876;-95
2023/12/24 10:54:59;;;;;;;1.80;1.00;;;22.70;66.30;;;;;;5055930;28;20438;-91
2023/12/24 10:57:39;;;;;;;6.37;1.30;;;22.70;66.30;;;;;;5055963;28;20441;-88
2023/12/24 11:00:12;;;;;;;2.17;0.97;;;22.60;66.20;;;;;;5046225;28;20476;-90
2023/12/24 11:02:44;;;;;;;3.97;1.20;;;22.70;66.30;;;;;;5056738;28;20506;-91
2023/12/24 11:05:11;;;;;;;1.20;0.80;;;22.60;66.30;;;;;;5057079;28;20453;-90
2023/12/24 11:07:50;;;;;;;2.47;1.10;;;22.70;66.30;;;;;;5055024;28;20441;-96
2023/12/24 11:10:41;;;;;;;1.40;0.87;;;22.70;66.20;;;;;;5056889;28;20475;-93
2023/12/24 11:13:25;;;;;;;2.10;0.80;;;22.70;66.20;;;;;;5057126;28;20448;-94
2023/12/24 11:15:51;;;;;;;4.53;1.90;;;22.60;66.30;;;;;;5056066;28;20464;-94
2023/12/24 11:18:43;;;;;;;2.43;0.93;;;22.70;66.40;;;;;;5057919;28;20441;-95
2023/12/24 11:21:14;;;;;;;2.37;0.90;;;22.70;66.30;;;;;;5060087;28;20441;-95
2023/12/24 11:23:41;;;;;;;2.93;1.27;;;22.70;66.70;;;;;;5058059;28;20445;-91
2023/12/24 11:26:30;;;;;;;2.07;1.00;;;22.70;66.50;;;;;;5055560;28;20446;-91
2023/12/24 11:28:58;;;;;;;1.60;1.03;;;22.70;66.40;;;;;;5055299;28;20442;-94
2023/12/24 11:31:26;;;;;;;1.20;0.80;;;22.60;66.30;;;;;;5055286;28;20947;-89
2023/12/24 11:33:54;;;;;;;1.93;0.90;;;22.60;66.30;;;;;;5055557;28;20844;-92
2023/12/24 11:36:22;;;;;;;3.30;0.83;;;22.60;66.30;;;;;;5055791;28;20947;-92
2023/12/24 11:38:54;;;;;;;1.87;0.83;;;22.60;66.40;;;;;;5055681;28;20939;-91
2023/12/24 11:41:23;;;;;;;1.50;0.80;;;22.60;66.30;;;;;;5058497;28;20476;-94
2023/12/24 11:43:55;;;;;;;5.40;1.20;;;22.60;66.50;;;;;;5055477;28;20456;-93
2023/12/24 11:46:24;;;;;;;4.53;1.20;;;22.60;66.40;;;;;;5057582;28;20920;-91
2023/12/24 11:48:51;;;;;;;1.83;1.00;;;22.60;66.50;;;;;;5055526;28;20511;-93
2023/12/24 11:51:23;;;;;;;2.17;1.10;;;22.60;66.50;;;;;;5055104;28;20441;-91
2023/12/24 11:53:58;;;;;;;3.83;1.10;;;22.60;66.40;;;;;;5055334;28;20425;-91
2023/12/24 11:56:32;;;;;;;1.90;1.00;;;22.60;66.30;;;;;;5056791;28;20425;-96
2023/12/24 11:59:00;;;;;;;1.70;0.87;;;22.60;66.30;;;;;;5054906;28;20865;-89
2023/12/24 12:01:31;;;;;;;3.00;1.00;;;22.60;66.30;;;;;;5035175;28;20886;-96
2023/12/24 12:03:59;;;;;;;1.53;0.80;;;22.60;66.10;;;;;;5051360;28;20440;-89
2023/12/24 12:06:26;;;;;;;2.33;0.97;;;22.70;66.30;;;;;;5054256;28;20444;-90
2023/12/24 12:08:54;;;;;;;3.00;1.00;;;22.60;66.10;;;;;;5054041;28;20465;-89
2023/12/24 12:11:20;;;;;;;2.20;0.90;;;22.60;66.20;;;;;;5054661;28;20460;-92
2023/12/24 12:13:50;;;;;;;1.43;0.93;;;22.70;66.30;;;;;;5059090;28;20444;-94
2023/12/24 12:16:17;;;;;;;2.63;1.00;;;22.70;66.40;;;;;;5056120;28;20854;-89
2023/12/24 12:18:45;;;;;;;2.27;1.00;;;22.60;66.30;;;;;;5053698;28;20480;-90
2023/12/24 12:21:12;;;;;;;1.70;1.10;;;22.70;66.30;;;;;;5054527;28;20507;-89
2023/12/24 12:23:39;;;;;;;2.70;1.03;;;22.70;66.30;;;;;;5058000;28;20477;-91
2023/12/24 12:26:06;;;;;;;1.63;0.83;;;22.70;66.30;;;;;;5066633;23;20481;-88
2023/12/24 12:28:33;;;;;;;2.13;1.00;;;22.70;66.40;;;;;;5054170;28;20443;-89
2023/12/24 12:31:00;;;;;;;3.27;0.90;;;22.70;65.60;;;;;;5054149;28;20454;-89
2023/12/24 12:33:27;;;;;;;4.27;1.00;;;22.70;66.50;;;;;;5054156;28;20437;-90
2023/12/24 12:35:56;;;;;;;3.10;0.80;;;22.70;66.60;;;;;;5054155;28;20441;-88
2023/12/24 12:38:23;;;;;;;2.13;0.80;;;22.70;66.90;;;;;;5054109;28;20487;-88
2023/12/24 12:40:51;;;;;;;1.47;0.80;;;22.70;67.20;;;;;;5053971;28;20489;-93
2023/12/24 12:43:20;;;;;;;1.40;1.00;;;22.70;67.40;;;;;;5053833;28;20804;-89
2023/12/24 12:45:47;;;;;;;1.40;1.20;;;22.80;67.60;;;;;;5054152;28;20429;-89
2023/12/24 12:48:14;;;;;;;1.40;0.80;;;22.70;67.80;;;;;;5053995;28;20466;-89
2023/12/24 12:50:41;;;;;;;1.40;0.97;;;22.80;68.00;;;;;;5053684;28;20437;-89
2023/12/24 12:53:10;;;;;;;1.50;0.90;;;22.70;68.00;;;;;;5045157;28;20438;-95
2023/12/24 12:55:36;;;;;;;2.43;1.07;;;22.70;67.90;;;;;;5034201;28;20449;-89